Portada
METAR-TAF:

METAR-TAF

Aeropuertos :

Aeropuerto Internacional Norman Manley

Kingston, Jamaica

latitud: 17-56N, longitud: 076-47W, altitud: 3 m

Observación

El informe se hizo hace 1 hora y 2 minutos, a las 13:00 UTC
Viento 3 kt del sureste
Temperatura 29°C
Humedad 70%
Presión 1014 hPa
Visibilidad 10 km o más
Escasas nubes a una altura de 2200 ft

METAR: MKJP 231300Z 13003KT 9999 FEW022 29/23 Q1014

Hora: 09:02 (14:02 UTC)

Pronóstico

El informe se hizo hace 2 horas y 47 minutos, a las 11:15 UTC
Pronóstico válido del 23 a las 12 UTC al 24 a las 12 UTC
Viento 5 kt del norte
Visibilidad 10 km o más
Escasas nubes a una altura de 2200 ft
Evolucionando progresivamente
del 23 a las 14 UTC al 23 a las 16 UTC
Viento 12 kt del sur-sureste
Evolucionando progresivamente
del 24 a las 00 UTC al 24 a las 02 UTC
Viento 3 kt del norte

TAF: MKJP 231115Z 2312/2412 01005KT 9999 FEW022 BECMG 2314/2316 16012KT BECMG 2400/2402 35003KT

Observaciones y pronósticos meteorológicos de más de 4000 aeropuertos (mensajes METAR y TAF).

Los puntos amarillos y rojos representan las estaciones disponibles.

Ponga el ratón en el punto deseado para ver el nombre de la estación.

Haga clic para ver las observaciones y los pronósticos meteorológicos.

Para cambiar el mapa : haga clic en los botones verdes con una cruz de color negro para hacer un zoom, en el botón verde con un guión para alejar o en las flechas verdes para mapas adyacentes.


METAR-TAF: